Time;durP1;ratioP1;P1;durP2;ratioP2;P2;SDS_P1;SDS_P2;PMS_P1;PMS_P2;Temp;Humidity;BMP_temperature;BMP_pressure;BME280_temperature;BME280_humidity;BME280_pressure;Samples;Min_cycle;Max_cycle;Signal;HPM_P1;HPM_P2
2024/03/12 00:02:07;;;;;;;3.13;2.97;;;9.40;99.90;;;;;;5017516;28;20201;-88
2024/03/12 00:04:37;;;;;;;3.78;3.45;;;9.30;99.90;;;;;;5338174;23;21351;-85
2024/03/12 00:12:25;;;;;;;5.20;5.00;;;9.30;99.90;;;;;;5219841;22;20456;-88
2024/03/12 00:14:52;;;;;;;10.13;9.23;;;9.30;99.90;;;;;;5015418;28;20213;-87
2024/03/12 00:17:24;;;;;;;3.88;3.67;;;9.20;99.90;;;;;;5016275;28;20202;-87
2024/03/12 00:19:55;;;;;;;5.72;5.25;;;9.20;99.90;;;;;;5013961;28;20281;-87
2024/03/12 00:22:23;;;;;;;2.55;2.42;;;9.20;99.90;;;;;;5012517;28;20210;-88
2024/03/12 00:24:51;;;;;;;9.85;8.55;;;9.10;99.90;;;;;;5006595;28;20528;-86
2024/03/12 00:27:18;;;;;;;2.20;2.10;;;9.10;99.90;;;;;;5013660;28;20255;-87
2024/03/12 00:29:49;;;;;;;8.60;7.68;;;9.10;99.90;;;;;;5014946;28;20202;-87
2024/03/12 00:32:18;;;;;;;10.73;4.45;;;9.00;99.90;;;;;;5016081;28;20194;-86
2024/03/12 00:34:46;;;;;;;6.15;5.65;;;9.00;99.90;;;;;;5013323;28;20233;-86
2024/03/12 00:37:15;;;;;;;2.90;2.75;;;9.10;99.90;;;;;;5009605;28;20213;-86
2024/03/12 00:39:42;;;;;;;8.52;6.82;;;9.10;99.90;;;;;;5003999;28;20548;-84
2024/03/12 00:42:11;;;;;;;10.20;6.28;;;9.10;99.90;;;;;;5003611;28;20197;-85
2024/03/12 00:44:39;;;;;;;6.35;5.85;;;9.10;99.90;;;;;;5005744;28;20213;-85
2024/03/12 00:47:06;;;;;;;6.95;6.22;;;9.10;99.90;;;;;;5004273;28;20205;-85
2024/03/12 00:49:38;;;;;;;6.22;5.72;;;8.90;99.90;;;;;;5002955;28;20209;-85
2024/03/12 00:52:08;;;;;;;21.25;11.35;;;9.10;99.90;;;;;;5003178;28;20251;-83
2024/03/12 00:54:36;;;;;;;4.55;4.25;;;9.10;99.90;;;;;;5002272;28;20237;-85
2024/03/12 00:57:05;;;;;;;13.93;12.43;;;9.10;99.90;;;;;;5003867;28;20209;-85
2024/03/12 00:59:35;;;;;;;4.07;3.88;;;9.10;99.90;;;;;;5001557;28;20406;-84
2024/03/12 01:02:12;;;;;;;5.50;4.68;;;9.00;99.90;;;;;;5002432;28;20209;-85
2024/03/12 01:04:40;;;;;;;7.07;6.40;;;9.00;99.90;;;;;;5003666;28;20243;-88
2024/03/12 01:07:08;;;;;;;4.80;4.45;;;9.00;99.90;;;;;;5006393;28;20221;-88
2024/03/12 01:09:39;;;;;;;5.38;5.03;;;9.10;99.90;;;;;;5004176;28;20753;-83
2024/03/12 01:12:09;;;;;;;4.40;4.13;;;9.00;99.90;;;;;;5002128;28;20486;-84
2024/03/12 01:14:39;;;;;;;3.63;3.38;;;9.00;99.90;;;;;;5002764;28;20208;-84
2024/03/12 01:17:09;;;;;;;7.68;6.95;;;9.10;99.90;;;;;;5002117;28;20239;-86
2024/03/12 01:19:37;;;;;;;3.42;3.22;;;9.10;99.90;;;;;;5002806;28;20537;-86
2024/03/12 01:22:05;;;;;;;7.45;6.95;;;9.00;99.90;;;;;;5007071;28;20494;-83
2024/03/12 01:24:33;;;;;;;6.90;6.50;;;9.10;99.90;;;;;;5001784;28;20214;-82
2024/03/12 01:27:01;;;;;;;7.25;6.72;;;9.00;99.90;;;;;;5001354;28;20221;-82
2024/03/12 01:29:28;;;;;;;4.22;3.95;;;9.10;99.90;;;;;;5002189;28;20201;-85
2024/03/12 01:31:56;;;;;;;4.07;3.78;;;9.10;99.90;;;;;;5008188;28;20235;-83
2024/03/12 01:34:24;;;;;;;5.00;4.28;;;9.00;99.90;;;;;;5003588;28;20202;-83
2024/03/12 01:36:53;;;;;;;5.03;4.78;;;9.00;99.90;;;;;;5000647;28;20316;-84
2024/03/12 01:39:28;;;;;;;5.60;5.32;;;9.00;99.90;;;;;;5002272;28;20214;-81
2024/03/12 01:41:56;;;;;;;5.03;4.50;;;9.00;99.90;;;;;;5001087;28;20209;-83
2024/03/12 01:44:24;;;;;;;8.77;5.22;;;9.00;99.90;;;;;;5002087;28;20273;-83
2024/03/12 01:46:53;;;;;;;5.72;5.35;;;9.00;99.90;;;;;;5012866;28;20225;-86
2024/03/12 01:49:21;;;;;;;9.05;7.63;;;9.00;99.90;;;;;;5004933;28;20532;-83
2024/03/12 01:51:49;;;;;;;2.97;2.88;;;9.00;99.90;;;;;;5003453;28;20233;-84
2024/03/12 01:54:19;;;;;;;7.28;6.68;;;9.00;99.90;;;;;;5003318;28;20277;-82
2024/03/12 01:56:51;;;;;;;5.93;5.53;;;9.00;99.90;;;;;;5002277;28;20224;-85
2024/03/12 01:59:20;;;;;;;6.20;5.80;;;8.90;99.90;;;;;;5002704;28;20217;-84
2024/03/12 02:01:47;;;;;;;4.18;3.97;;;8.90;99.90;;;;;;5002081;28;20201;-84
2024/03/12 02:04:16;;;;;;;4.78;4.57;;;8.90;99.90;;;;;;4996719;28;20210;-84
2024/03/12 02:06:44;;;;;;;11.07;8.02;;;8.90;99.90;;;;;;5010035;28;20269;-81
2024/03/12 02:09:12;;;;;;;5.07;4.68;;;8.90;99.90;;;;;;5016059;28;20196;-81
2024/03/12 02:11:40;;;;;;;5.50;5.07;;;8.90;99.90;;;;;;5017094;28;20220;-84
2024/03/12 02:14:12;;;;;;;3.15;2.70;;;8.80;99.90;;;;;;5011038;28;20276;-81
2024/03/12 02:16:39;;;;;;;8.25;6.30;;;8.80;99.90;;;;;;5005322;28;20225;-82
2024/03/12 02:19:06;;;;;;;5.85;5.22;;;8.90;99.90;;;;;;5023532;28;20230;-83
2024/03/12 02:21:33;;;;;;;6.45;5.95;;;8.90;99.90;;;;;;5019712;28;20549;-82
2024/03/12 02:24:00;;;;;;;6.72;6.32;;;8.80;99.90;;;;;;5000821;28;20213;-83
2024/03/12 02:26:28;;;;;;;4.38;4.07;;;8.80;99.90;;;;;;4996597;28;20272;-82
2024/03/12 02:28:56;;;;;;;6.75;6.25;;;8.80;99.90;;;;;;5000466;28;20742;-81
2024/03/12 02:31:24;;;;;;;5.88;5.43;;;8.80;99.90;;;;;;5001497;28;20304;-84
2024/03/12 02:33:52;;;;;;;52.55;3.55;;;8.80;99.90;;;;;;4999410;28;20201;-83
2024/03/12 02:36:20;;;;;;;6.70;6.18;;;8.70;99.90;;;;;;4999841;28;20233;-81
2024/03/12 02:38:47;;;;;;;3.15;3.05;;;8.70;99.90;;;;;;5002185;28;20209;-84
2024/03/12 02:41:15;;;;;;;4.22;3.92;;;8.70;99.90;;;;;;5002944;28;20251;-86
2024/03/12 02:43:46;;;;;;;2.20;2.10;;;8.70;99.90;;;;;;5009543;28;20232;-88
2024/03/12 02:46:14;;;;;;;4.40;4.07;;;8.70;99.90;;;;;;5011742;28;20762;-85
2024/03/12 02:48:42;;;;;;;4.97;4.55;;;8.60;99.90;;;;;;4993833;28;20209;-87
2024/03/12 02:51:11;;;;;;;3.85;3.65;;;8.60;99.90;;;;;;5003625;28;20214;-88
2024/03/12 02:53:38;;;;;;;5.55;5.15;;;8.60;99.90;;;;;;5002154;28;20208;-87
2024/03/12 02:56:06;;;;;;;5.13;4.72;;;8.60;99.90;;;;;;5001798;28;20233;-84
2024/03/12 02:58:36;;;;;;;8.35;7.75;;;8.60;99.90;;;;;;5004095;28;20212;-85
2024/03/12 03:01:03;;;;;;;8.73;8.02;;;8.60;99.90;;;;;;5001567;28;20220;-85
2024/03/12 03:03:33;;;;;;;4.38;4.03;;;8.50;99.90;;;;;;5000356;28;20402;-86
2024/03/12 03:06:01;;;;;;;8.73;5.00;;;8.50;99.90;;;;;;5000402;28;20550;-86
2024/03/12 03:08:30;;;;;;;6.70;6.07;;;8.50;99.90;;;;;;5001142;28;20697;-86
2024/03/12 03:10:58;;;;;;;7.32;6.57;;;8.50;99.90;;;;;;5001203;28;20930;-88
2024/03/12 03:13:29;;;;;;;3.70;3.55;;;8.60;99.90;;;;;;4995361;28;20216;-86
2024/03/12 03:15:58;;;;;;;4.78;4.47;;;8.50;99.90;;;;;;5001345;28;20249;-85
2024/03/12 03:18:27;;;;;;;3.10;2.90;;;8.50;99.90;;;;;;5010006;28;20252;-86
2024/03/12 03:20:54;;;;;;;6.82;6.25;;;8.50;99.90;;;;;;5008432;28;20379;-87
2024/03/12 03:23:21;;;;;;;5.07;4.72;;;8.50;99.90;;;;;;5001486;28;20209;-85
2024/03/12 03:25:50;;;;;;;17.33;5.90;;;8.50;99.90;;;;;;4995957;28;20202;-81
2024/03/12 03:28:18;;;;;;;6.28;5.70;;;8.50;99.90;;;;;;5003656;28;20206;-88
2024/03/12 03:30:45;;;;;;;4.85;4.45;;;8.40;99.90;;;;;;5005124;28;20221;-85
2024/03/12 03:33:15;;;;;;;6.63;6.20;;;8.40;99.90;;;;;;5001415;28;20206;-83
2024/03/12 03:35:42;;;;;;;6.00;5.53;;;8.50;99.90;;;;;;5005137;28;20229;-85
2024/03/12 03:38:11;;;;;;;3.55;3.25;;;8.40;99.90;;;;;;5006146;28;20201;-83
2024/03/12 03:40:38;;;;;;;3.25;3.15;;;8.40;99.90;;;;;;5013933;28;20252;-85
2024/03/12 03:43:08;;;;;;;4.18;3.88;;;8.40;99.90;;;;;;5006189;28;20268;-86
2024/03/12 03:45:35;;;;;;;3.75;3.53;;;8.30;99.90;;;;;;5005127;28;20236;-85
2024/03/12 03:48:04;;;;;;;5.30;4.88;;;8.30;99.90;;;;;;5004841;28;20204;-84
2024/03/12 03:50:32;;;;;;;4.35;4.15;;;8.40;99.90;;;;;;4999568;28;20210;-89
2024/03/12 03:53:08;;;;;;;4.15;3.85;;;8.30;99.90;;;;;;5009154;28;20214;-86
2024/03/12 03:55:35;;;;;;;3.20;2.90;;;8.30;99.90;;;;;;5001634;28;20237;-85
2024/03/12 03:58:06;;;;;;;6.55;6.10;;;8.30;99.90;;;;;;5002580;28;20209;-86
2024/03/12 04:00:35;;;;;;;4.50;4.25;;;8.30;99.90;;;;;;4999726;28;20205;-85
2024/03/12 04:03:06;;;;;;;2.72;2.58;;;8.30;99.90;;;;;;5004700;28;20206;-84
2024/03/12 04:05:37;;;;;;;5.75;5.20;;;8.20;99.90;;;;;;5004527;28;20247;-84
2024/03/12 04:08:06;;;;;;;7.68;7.18;;;8.20;99.90;;;;;;5003677;28;20206;-81
2024/03/12 04:10:34;;;;;;;8.82;8.18;;;8.10;99.90;;;;;;4996472;28;20210;-84
2024/03/12 04:13:01;;;;;;;10.00;8.43;;;8.20;99.90;;;;;;5007346;28;20535;-85
2024/03/12 04:15:28;;;;;;;9.40;8.75;;;8.20;99.90;;;;;;5003236;28;20249;-82
2024/03/12 04:17:56;;;;;;;4.32;4.07;;;8.10;99.90;;;;;;5014148;28;20197;-82
2024/03/12 04:20:23;;;;;;;8.98;8.20;;;8.00;99.90;;;;;;5020878;28;20560;-82
2024/03/12 04:22:50;;;;;;;6.10;5.30;;;8.00;99.90;;;;;;5009195;28;20232;-82
2024/03/12 04:25:18;;;;;;;8.48;7.93;;;7.90;99.90;;;;;;5005601;28;20221;-81
2024/03/12 04:27:45;;;;;;;8.50;8.02;;;7.90;99.90;;;;;;5005645;28;20219;-80
2024/03/12 04:30:15;;;;;;;4.97;4.05;;;7.90;99.90;;;;;;5026654;28;20234;-82
2024/03/12 04:32:44;;;;;;;15.57;9.32;;;7.90;99.90;;;;;;5028474;28;20227;-82
2024/03/12 04:35:12;;;;;;;6.70;6.25;;;7.90;99.90;;;;;;5010244;28;20193;-83
2024/03/12 04:37:40;;;;;;;6.53;5.93;;;7.90;99.90;;;;;;5017329;28;20200;-81
2024/03/12 04:40:08;;;;;;;11.00;10.00;;;7.90;99.90;;;;;;5001960;28;20236;-82
2024/03/12 04:42:37;;;;;;;5.93;5.53;;;7.80;99.90;;;;;;5003127;28;20378;-82
2024/03/12 04:45:07;;;;;;;10.23;7.60;;;7.80;99.90;;;;;;5002654;28;20212;-82
2024/03/12 04:47:40;;;;;;;6.95;6.13;;;7.80;99.90;;;;;;5008015;28;20202;-84
2024/03/12 04:50:13;;;;;;;5.68;5.38;;;7.80;99.90;;;;;;5009821;28;20207;-82
2024/03/12 04:52:42;;;;;;;8.75;7.20;;;7.80;99.90;;;;;;4990475;28;20233;-83
2024/03/12 04:55:13;;;;;;;6.32;5.82;;;7.80;99.90;;;;;;5027105;28;20199;-83
2024/03/12 04:57:40;;;;;;;12.02;9.55;;;7.80;99.90;;;;;;4997205;28;20217;-81
2024/03/12 05:00:13;;;;;;;8.52;7.95;;;7.80;99.90;;;;;;5004168;28;20209;-80
2024/03/12 05:02:42;;;;;;;8.00;7.25;;;7.80;99.90;;;;;;5000897;28;20211;-79
2024/03/12 05:05:13;;;;;;;5.85;5.38;;;7.80;99.90;;;;;;5001229;28;20219;-80
2024/03/12 05:07:42;;;;;;;10.15;7.65;;;7.70;99.90;;;;;;5002602;28;20220;-80
2024/03/12 05:10:11;;;;;;;7.05;6.43;;;7.70;99.90;;;;;;5004607;28;20212;-85
2024/03/12 05:12:40;;;;;;;8.00;7.20;;;7.70;99.90;;;;;;5014687;28;20240;-86
2024/03/12 05:15:09;;;;;;;8.65;8.13;;;7.70;99.90;;;;;;5007379;28;20201;-83
2024/03/12 05:17:37;;;;;;;6.35;4.90;;;7.70;99.90;;;;;;5003397;28;20244;-84
2024/03/12 05:20:12;;;;;;;9.82;7.45;;;7.70;99.90;;;;;;5003352;28;20201;-84
2024/03/12 05:22:39;;;;;;;4.03;3.78;;;7.70;99.90;;;;;;5002237;28;20244;-82
2024/03/12 05:25:18;;;;;;;6.63;6.32;;;7.80;99.90;;;;;;5002546;28;20236;-82
2024/03/12 05:27:47;;;;;;;7.57;7.10;;;7.70;99.90;;;;;;5004904;28;20228;-81
2024/03/12 05:30:15;;;;;;;6.88;6.47;;;7.70;99.90;;;;;;4999928;28;20523;-79
2024/03/12 05:32:46;;;;;;;11.77;7.07;;;7.70;99.90;;;;;;4994220;28;20522;-79
2024/03/12 05:35:20;;;;;;;7.22;6.72;;;7.70;99.90;;;;;;5002496;28;20372;-81
2024/03/12 05:38:03;;;;;;;8.93;8.32;;;7.60;99.90;;;;;;5002170;28;20275;-77
2024/03/12 05:48:54;;;;;;;4.35;4.15;;;7.50;99.90;;;;;;4999487;28;20268;-79
2024/03/12 05:51:21;;;;;;;9.48;8.48;;;7.50;99.90;;;;;;4997872;28;20213;-82
2024/03/12 05:53:49;;;;;;;12.32;7.80;;;7.50;99.90;;;;;;4998800;28;20528;-79
2024/03/12 05:56:17;;;;;;;7.63;6.65;;;7.40;99.90;;;;;;4992592;28;20533;-81
2024/03/12 05:58:45;;;;;;;7.43;7.03;;;7.40;99.90;;;;;;4992092;28;20259;-78
2024/03/12 06:01:13;;;;;;;17.45;9.82;;;7.40;99.90;;;;;;5000729;28;20208;-80
2024/03/12 06:03:40;;;;;;;11.23;10.45;;;7.40;99.90;;;;;;5000056;28;20203;-81
2024/03/12 06:06:07;;;;;;;7.30;5.38;;;7.50;99.90;;;;;;5000360;28;20212;-81
2024/03/12 06:08:35;;;;;;;10.00;9.38;;;7.30;99.90;;;;;;5003313;28;20240;-79
2024/03/12 06:11:02;;;;;;;14.23;9.88;;;7.40;99.90;;;;;;5006578;28;20235;-78
2024/03/12 06:13:30;;;;;;;5.85;5.55;;;7.50;99.90;;;;;;4998969;28;20240;-79
2024/03/12 06:15:57;;;;;;;6.88;6.22;;;7.40;99.90;;;;;;4999464;28;20271;-80
2024/03/12 06:18:28;;;;;;;6.63;3.85;;;7.40;99.90;;;;;;4999516;28;20390;-82
2024/03/12 06:20:55;;;;;;;9.18;8.48;;;7.40;99.90;;;;;;4999709;28;20213;-79
2024/03/12 06:23:23;;;;;;;10.75;9.70;;;7.40;99.90;;;;;;4996294;28;20540;-80
2024/03/12 06:25:50;;;;;;;7.22;6.85;;;7.40;99.90;;;;;;4998986;28;20212;-80
2024/03/12 06:28:21;;;;;;;8.43;7.80;;;7.40;99.90;;;;;;4997083;28;20205;-81
2024/03/12 06:30:48;;;;;;;11.65;10.70;;;7.30;99.90;;;;;;4998291;28;20205;-81
2024/03/12 06:33:18;;;;;;;5.78;5.47;;;7.40;99.90;;;;;;4998988;28;20240;-79
2024/03/12 06:35:47;;;;;;;9.75;8.88;;;7.40;99.90;;;;;;4993318;28;20216;-80
2024/03/12 06:38:15;;;;;;;8.90;8.05;;;7.30;99.90;;;;;;4997647;28;20247;-80
2024/03/12 06:40:43;;;;;;;8.23;7.65;;;7.40;99.90;;;;;;4996739;28;20213;-81
2024/03/12 06:43:13;;;;;;;13.68;12.20;;;7.40;99.90;;;;;;4997153;28;20200;-82
2024/03/12 06:45:41;;;;;;;6.22;5.80;;;7.40;99.90;;;;;;4997611;28;20213;-82
2024/03/12 06:48:08;;;;;;;4.35;4.05;;;7.30;99.90;;;;;;4992073;28;20213;-80
2024/03/12 06:50:35;;;;;;;6.28;5.80;;;7.40;99.90;;;;;;4998161;28;20209;-82
2024/03/12 06:53:05;;;;;;;7.55;7.05;;;7.40;99.90;;;;;;4998623;28;20213;-82
2024/03/12 06:55:32;;;;;;;8.10;7.53;;;7.30;99.90;;;;;;4997897;28;20213;-80
2024/03/12 06:58:04;;;;;;;7.10;6.55;;;7.40;99.90;;;;;;4995703;28;20393;-80
2024/03/12 07:00:37;;;;;;;11.75;10.50;;;7.40;99.90;;;;;;5006059;28;20213;-81
2024/03/12 07:03:05;;;;;;;7.10;6.40;;;7.40;99.90;;;;;;5016071;28;20199;-79
2024/03/12 07:05:56;;;;;;;8.88;8.10;;;7.40;99.90;;;;;;5015642;28;20264;-80
2024/03/12 07:08:25;;;;;;;7.63;7.07;;;7.30;99.90;;;;;;5010235;28;20256;-80
2024/03/12 07:10:51;;;;;;;12.45;8.70;;;7.40;99.90;;;;;;5000195;28;20255;-78
2024/03/12 07:13:23;;;;;;;8.95;8.20;;;7.30;99.90;;;;;;4998944;28;20246;-80
2024/03/12 07:15:50;;;;;;;8.25;7.32;;;7.40;99.90;;;;;;5000505;28;20211;-80
2024/03/12 07:18:21;;;;;;;9.85;6.97;;;7.30;99.90;;;;;;5000378;28;20240;-79
2024/03/12 07:20:52;;;;;;;11.30;9.15;;;7.30;99.90;;;;;;4999323;28;20264;-78
2024/03/12 07:23:19;;;;;;;7.97;7.40;;;7.30;99.90;;;;;;4993838;28;20505;-80
2024/03/12 07:25:50;;;;;;;13.25;12.00;;;7.30;99.90;;;;;;4997015;28;20216;-78
2024/03/12 07:28:17;;;;;;;4.93;4.40;;;7.50;99.90;;;;;;4997870;28;20532;-78
2024/03/12 07:30:50;;;;;;;7.45;7.07;;;7.40;99.90;;;;;;4997450;28;20293;-78
2024/03/12 07:33:20;;;;;;;4.72;4.43;;;7.30;99.90;;;;;;4997778;28;20224;-78
2024/03/12 07:35:47;;;;;;;8.80;8.02;;;7.40;99.90;;;;;;4996796;28;20263;-80
2024/03/12 07:38:15;;;;;;;16.83;12.48;;;7.30;99.90;;;;;;4997670;28;20231;-77
2024/03/12 07:40:43;;;;;;;9.27;8.45;;;7.40;99.90;;;;;;4997380;28;20354;-78
2024/03/12 07:43:11;;;;;;;10.82;7.43;;;7.30;99.90;;;;;;4997704;28;20224;-80
2024/03/12 07:45:44;;;;;;;7.95;7.38;;;7.40;99.90;;;;;;4997789;28;20217;-77
2024/03/12 07:48:11;;;;;;;4.00;3.80;;;7.40;99.90;;;;;;5005399;28;20543;-80
2024/03/12 07:50:38;;;;;;;4.65;4.35;;;7.40;99.90;;;;;;4996840;28;20206;-80
2024/03/12 07:53:06;;;;;;;12.65;7.45;;;7.40;99.90;;;;;;4996969;28;20198;-80
2024/03/12 07:55:36;;;;;;;10.30;7.25;;;7.40;99.90;;;;;;4997913;28;20213;-80
2024/03/12 07:58:04;;;;;;;11.52;6.15;;;7.50;99.90;;;;;;4997758;28;20236;-78
2024/03/12 08:00:32;;;;;;;5.68;5.10;;;7.40;99.90;;;;;;4998029;28;20209;-79
2024/03/12 08:02:59;;;;;;;6.40;5.93;;;7.40;99.90;;;;;;5002104;28;20206;-82
2024/03/12 08:05:26;;;;;;;6.93;6.57;;;7.40;99.90;;;;;;5014575;28;20205;-80
2024/03/12 08:07:55;;;;;;;6.97;6.55;;;7.50;99.90;;;;;;4999689;28;20213;-79
2024/03/12 08:10:22;;;;;;;6.65;6.25;;;7.40;99.90;;;;;;4998529;28;20231;-81
2024/03/12 08:12:49;;;;;;;8.55;5.95;;;7.30;99.90;;;;;;5000303;28;20232;-81
2024/03/12 08:15:17;;;;;;;10.82;10.10;;;7.40;99.90;;;;;;5003337;28;20421;-79
2024/03/12 08:17:46;;;;;;;9.77;6.63;;;7.50;99.90;;;;;;5002444;28;20569;-80
2024/03/12 08:20:17;;;;;;;6.65;6.20;;;7.60;99.90;;;;;;5002555;28;20209;-80
2024/03/12 08:22:47;;;;;;;9.82;8.70;;;7.50;99.90;;;;;;5000668;28;20208;-79
2024/03/12 08:25:16;;;;;;;8.32;6.22;;;7.60;99.90;;;;;;5002751;28;20198;-80
2024/03/12 08:27:48;;;;;;;9.40;8.70;;;7.50;99.90;;;;;;5002506;28;20209;-81
2024/03/12 08:30:16;;;;;;;9.57;8.68;;;7.50;99.90;;;;;;5005676;28;20561;-80
2024/03/12 08:32:43;;;;;;;8.48;7.82;;;7.50;99.90;;;;;;5001240;28;20211;-79
2024/03/12 08:35:14;;;;;;;8.40;7.60;;;7.50;99.90;;;;;;5000418;28;20280;-81
2024/03/12 08:37:41;;;;;;;3.80;3.60;;;7.60;99.90;;;;;;5001533;28;20279;-79
2024/03/12 08:40:08;;;;;;;23.77;9.05;;;7.50;99.90;;;;;;5001544;28;20303;-81
2024/03/12 08:42:37;;;;;;;4.30;4.10;;;7.60;99.90;;;;;;5005397;28;20568;-83
2024/03/12 08:45:21;;;;;;;4.80;4.32;;;7.60;99.90;;;;;;5001619;28;20205;-78
2024/03/12 08:47:50;;;;;;;11.20;8.18;;;7.50;99.90;;;;;;5016919;28;20224;-79
2024/03/12 08:50:18;;;;;;;7.18;6.65;;;7.60;99.90;;;;;;5004442;28;20304;-80
2024/03/12 08:52:48;;;;;;;4.82;4.25;;;7.60;99.90;;;;;;5007774;28;20276;-82
2024/03/12 08:55:16;;;;;;;5.43;5.00;;;7.50;99.90;;;;;;5018163;28;20225;-82
2024/03/12 08:57:44;;;;;;;9.25;8.45;;;7.60;99.90;;;;;;5014344;28;20229;-81
2024/03/12 09:00:12;;;;;;;8.70;8.10;;;7.60;99.90;;;;;;5015244;28;20198;-78
2024/03/12 09:02:39;;;;;;;2.65;2.55;;;7.60;99.90;;;;;;5010060;28;20219;-82
2024/03/12 09:05:07;;;;;;;6.32;6.03;;;7.60;99.90;;;;;;5009766;28;20229;-82
2024/03/12 09:07:37;;;;;;;6.70;6.13;;;7.70;99.90;;;;;;5002064;28;20217;-81
2024/03/12 09:10:12;;;;;;;5.45;5.07;;;7.70;99.90;;;;;;4997301;28;20206;-80
2024/03/12 09:12:41;;;;;;;12.90;5.90;;;7.70;99.90;;;;;;4999759;28;20217;-81
2024/03/12 09:15:10;;;;;;;5.63;5.22;;;7.70;99.90;;;;;;5002627;28;20226;-79
2024/03/12 09:17:38;;;;;;;2.50;2.40;;;7.70;99.90;;;;;;5000158;28;20274;-80
2024/03/12 09:20:10;;;;;;;13.05;7.72;;;7.70;99.90;;;;;;4983975;28;20212;-78
2024/03/12 09:22:39;;;;;;;6.65;6.25;;;7.80;99.90;;;;;;5000492;28;20197;-81
2024/03/12 09:25:08;;;;;;;6.25;5.95;;;7.80;99.90;;;;;;5000545;28;20194;-79
2024/03/12 09:27:36;;;;;;;6.65;5.72;;;7.80;99.90;;;;;;5003027;28;20209;-79
2024/03/12 09:30:05;;;;;;;2.95;2.75;;;7.80;99.90;;;;;;4999709;28;20212;-80
2024/03/12 09:32:33;;;;;;;4.93;4.63;;;7.80;99.90;;;;;;4999816;28;20244;-80
2024/03/12 09:35:03;;;;;;;4.97;4.70;;;7.80;99.90;;;;;;5000350;28;20577;-77
2024/03/12 09:37:32;;;;;;;5.82;5.03;;;7.80;99.90;;;;;;4998993;28;20347;-79
2024/03/12 09:40:00;;;;;;;6.50;5.90;;;7.90;99.90;;;;;;5000643;28;20197;-80
2024/03/12 09:42:28;;;;;;;4.78;4.47;;;8.00;99.90;;;;;;4995323;28;20271;-80
2024/03/12 09:44:58;;;;;;;4.38;4.03;;;8.10;99.90;;;;;;5002783;28;20206;-82
2024/03/12 09:47:26;;;;;;;7.25;6.65;;;8.10;99.90;;;;;;4999419;28;20218;-82
2024/03/12 09:49:54;;;;;;;3.38;3.25;;;8.20;99.90;;;;;;4999925;28;20240;-80
2024/03/12 09:52:21;;;;;;;24.15;4.18;;;8.10;99.90;;;;;;5000182;28;20308;-81
2024/03/12 09:54:49;;;;;;;10.45;4.55;;;8.00;99.90;;;;;;5008286;28;20264;-80
2024/03/12 09:57:16;;;;;;;4.20;4.00;;;8.10;99.90;;;;;;5013744;28;20267;-80
2024/03/12 09:59:43;;;;;;;5.05;3.60;;;8.20;99.90;;;;;;5000532;28;20543;-80
2024/03/12 10:02:10;;;;;;;3.20;3.00;;;8.20;99.90;;;;;;5000352;28;20212;-82
2024/03/12 10:04:39;;;;;;;10.52;9.82;;;8.20;99.90;;;;;;5000237;28;20260;-81
2024/03/12 10:07:06;;;;;;;4.57;4.38;;;8.00;99.90;;;;;;5001717;28;20451;-82
2024/03/12 10:09:33;;;;;;;7.35;6.95;;;8.00;99.90;;;;;;5001017;28;20205;-81
2024/03/12 10:12:03;;;;;;;7.43;7.00;;;8.10;99.90;;;;;;4998281;28;20255;-82
2024/03/12 10:14:36;;;;;;;10.90;7.70;;;8.10;99.90;;;;;;4999619;28;20269;-80
2024/03/12 10:17:15;;;;;;;5.72;5.30;;;8.10;99.90;;;;;;5001423;28;20241;-80
2024/03/12 10:19:51;;;;;;;11.15;10.13;;;8.10;99.90;;;;;;5010199;28;20232;-80
2024/03/12 10:22:20;;;;;;;5.50;4.93;;;8.10;99.90;;;;;;4999492;28;20204;-82
2024/03/12 10:24:48;;;;;;;2.42;2.33;;;8.10;99.90;;;;;;5005227;28;20198;-80
2024/03/12 10:27:16;;;;;;;4.97;4.57;;;8.30;99.90;;;;;;5004650;28;20205;-80
2024/03/12 10:29:43;;;;;;;4.28;4.07;;;8.40;99.90;;;;;;5001732;28;20216;-80
2024/03/12 10:32:17;;;;;;;7.07;6.50;;;8.30;99.90;;;;;;5008640;28;20240;-80
2024/03/12 10:34:45;;;;;;;4.90;4.50;;;8.50;99.90;;;;;;4999700;28;20300;-81
2024/03/12 10:37:34;;;;;;;6.45;5.60;;;8.50;99.90;;;;;;4997285;28;20296;-79
2024/03/12 10:40:15;;;;;;;6.10;5.63;;;8.50;99.90;;;;;;5000761;28;20200;-81
2024/03/12 10:42:54;;;;;;;6.68;6.10;;;8.50;99.90;;;;;;5012344;28;20213;-80
2024/03/12 10:45:24;;;;;;;5.53;5.10;;;8.50;99.90;;;;;;5005269;28;20244;-79
2024/03/12 10:47:51;;;;;;;7.88;7.13;;;8.40;99.90;;;;;;5006680;28;20449;-79
2024/03/12 10:50:23;;;;;;;6.63;5.13;;;8.40;99.90;;;;;;5001259;28;20213;-81
2024/03/12 10:52:54;;;;;;;6.70;6.25;;;8.50;99.90;;;;;;4991586;28;20364;-81
2024/03/12 10:55:21;;;;;;;4.85;4.57;;;8.60;99.90;;;;;;5000158;28;20213;-81
2024/03/12 10:57:54;;;;;;;6.00;5.53;;;8.60;99.90;;;;;;4998759;28;20323;-80
2024/03/12 11:00:25;;;;;;;2.40;2.30;;;8.70;99.90;;;;;;4999470;28;20236;-82
2024/03/12 11:02:53;;;;;;;2.67;2.53;;;8.60;99.90;;;;;;4992534;28;20281;-81
2024/03/12 11:05:22;;;;;;;2.58;2.47;;;8.60;99.90;;;;;;5000279;28;20212;-79
2024/03/12 11:07:49;;;;;;;7.32;6.82;;;8.60;99.90;;;;;;4990764;28;20217;-82
2024/03/12 11:10:17;;;;;;;5.22;4.93;;;8.60;99.90;;;;;;4998284;28;20205;-82
2024/03/12 11:12:44;;;;;;;14.65;9.68;;;8.80;99.90;;;;;;4998994;28;20221;-80
2024/03/12 11:15:13;;;;;;;7.70;6.45;;;8.70;99.90;;;;;;4999868;28;20497;-80
2024/03/12 11:17:50;;;;;;;8.68;7.90;;;8.80;99.90;;;;;;5000418;28;20229;-80
2024/03/12 11:20:22;;;;;;;3.97;3.78;;;8.90;99.90;;;;;;4999070;28;20295;-80
2024/03/12 11:22:56;;;;;;;8.70;7.60;;;8.80;99.90;;;;;;4999817;28;20212;-81
2024/03/12 11:25:43;;;;;;;7.32;6.80;;;8.70;99.90;;;;;;5000558;28;20228;-82
2024/03/12 11:28:26;;;;;;;8.90;8.20;;;8.90;99.90;;;;;;4999362;28;20206;-80
2024/03/12 11:31:01;;;;;;;5.07;4.57;;;9.20;99.90;;;;;;4999159;28;20208;-82
2024/03/12 11:33:41;;;;;;;6.00;5.57;;;9.20;99.90;;;;;;5006750;28;20208;-82
2024/03/12 11:36:09;;;;;;;5.20;4.85;;;9.20;99.90;;;;;;5011026;28;20269;-82
2024/03/12 11:38:37;;;;;;;3.17;3.08;;;9.20;99.90;;;;;;5002561;28;20244;-81
2024/03/12 11:41:04;;;;;;;6.15;5.80;;;9.10;99.90;;;;;;5010591;28;20244;-81
2024/03/12 11:43:39;;;;;;;6.63;6.22;;;9.30;99.90;;;;;;5008584;28;20201;-83
2024/03/12 11:46:15;;;;;;;11.13;3.58;;;9.20;99.90;;;;;;5016710;28;20193;-82
2024/03/12 11:48:42;;;;;;;4.45;4.25;;;9.20;99.90;;;;;;5019344;28;20219;-80
2024/03/12 11:51:13;;;;;;;8.35;7.75;;;9.20;99.90;;;;;;5012144;28;20237;-79
2024/03/12 11:53:47;;;;;;;5.53;5.22;;;9.20;99.90;;;;;;5019779;28;20190;-82
2024/03/12 11:56:19;;;;;;;5.00;4.47;;;9.20;99.90;;;;;;5020634;28;20216;-79
2024/03/12 11:58:54;;;;;;;7.68;5.63;;;9.30;99.90;;;;;;5018523;28;20239;-80
2024/03/12 12:01:31;;;;;;;2.20;2.10;;;9.30;99.90;;;;;;5000454;28;20252;-81
2024/03/12 12:04:03;;;;;;;9.80;9.07;;;9.30;99.90;;;;;;5005201;28;20289;-81
2024/03/12 12:06:34;;;;;;;6.60;6.25;;;9.40;99.90;;;;;;5005079;28;20198;-81
2024/03/12 12:09:05;;;;;;;3.88;3.67;;;9.50;99.90;;;;;;5005153;28;20680;-80
2024/03/12 12:11:34;;;;;;;6.38;5.88;;;9.60;99.90;;;;;;5000537;28;20236;-82
2024/03/12 12:14:08;;;;;;;5.68;5.38;;;9.60;99.90;;;;;;5003921;28;20206;-81
2024/03/12 12:16:36;;;;;;;6.75;5.97;;;9.70;99.90;;;;;;5004361;28;20255;-83
2024/03/12 12:19:08;;;;;;;3.88;3.67;;;9.70;99.90;;;;;;5003376;28;20241;-79
2024/03/12 12:21:45;;;;;;;3.55;3.35;;;9.90;99.90;;;;;;5003567;28;20209;-82
2024/03/12 12:24:13;;;;;;;3.00;2.90;;;9.90;99.90;;;;;;5002802;28;20208;-82
2024/03/12 12:26:44;;;;;;;6.90;6.40;;;10.20;99.90;;;;;;5003415;28;20222;-81
2024/03/12 12:29:11;;;;;;;6.28;5.85;;;10.00;99.90;;;;;;5002614;28;20225;-80
2024/03/12 12:31:41;;;;;;;7.25;6.78;;;9.90;99.90;;;;;;5003670;28;20221;-80
2024/03/12 12:34:09;;;;;;;5.40;4.95;;;10.10;99.90;;;;;;5002787;28;20217;-80
2024/03/12 12:36:40;;;;;;;6.88;6.35;;;10.00;99.90;;;;;;5002185;28;20210;-82
2024/03/12 12:39:09;;;;;;;8.82;8.32;;;10.10;99.90;;;;;;5001092;28;20276;-81
2024/03/12 12:41:45;;;;;;;8.88;8.07;;;10.20;99.90;;;;;;5003187;28;20211;-80
2024/03/12 12:44:16;;;;;;;4.57;4.30;;;10.10;99.90;;;;;;5001731;28;20275;-80
2024/03/12 12:46:45;;;;;;;5.65;5.38;;;10.20;99.90;;;;;;5005809;28;20237;-82
2024/03/12 12:49:16;;;;;;;6.60;6.20;;;10.20;99.90;;;;;;5012030;28;20245;-81
2024/03/12 12:51:45;;;;;;;4.05;3.85;;;10.30;99.90;;;;;;5003442;28;20203;-82
2024/03/12 12:54:15;;;;;;;4.90;4.60;;;10.30;99.90;;;;;;5001627;28;20199;-85
2024/03/12 12:56:43;;;;;;;1.95;1.85;;;10.20;99.90;;;;;;5003512;28;20214;-80
2024/03/12 12:59:16;;;;;;;3.35;3.25;;;10.50;99.90;;;;;;5002344;28;20251;-83
2024/03/12 13:01:47;;;;;;;5.80;5.45;;;10.50;99.90;;;;;;5002641;28;20278;-81
2024/03/12 13:04:24;;;;;;;5.97;5.65;;;10.70;99.90;;;;;;5004622;28;20201;-82
2024/03/12 13:06:53;;;;;;;5.28;4.88;;;10.90;99.90;;;;;;4990817;28;20555;-81
2024/03/12 13:09:33;;;;;;;6.97;6.47;;;11.00;99.90;;;;;;5002433;28;20211;-82
2024/03/12 13:12:07;;;;;;;10.73;9.63;;;11.00;99.90;;;;;;5008510;28;20211;-81
2024/03/12 13:14:41;;;;;;;5.60;5.15;;;10.90;99.90;;;;;;5014088;28;20251;-82
2024/03/12 13:17:09;;;;;;;5.80;5.38;;;10.90;99.90;;;;;;5019720;28;20212;-84
2024/03/12 13:19:36;;;;;;;5.57;5.13;;;10.90;99.90;;;;;;5018762;28;20216;-83
2024/03/12 13:22:04;;;;;;;5.90;5.55;;;10.90;99.90;;;;;;5016658;28;20211;-82